createdAt,value
2022-08-12T00:00:04.114Z,3.35
2022-08-12T00:03:24.619Z,3.30
2022-08-12T00:06:47.053Z,3.50
2022-08-12T00:10:08.871Z,3.60
2022-08-12T00:13:30.278Z,3.38
2022-08-12T00:16:51.477Z,2.95
2022-08-12T00:20:11.755Z,3.95
2022-08-12T00:23:32.185Z,3.67
2022-08-12T00:26:53.702Z,3.83
2022-08-12T00:30:14.726Z,3.70
2022-08-12T00:33:38.742Z,3.53
2022-08-12T00:37:14.326Z,3.85
2022-08-12T00:40:34.576Z,3.22
2022-08-12T00:43:38.536Z,4.05
2022-08-12T00:46:48.274Z,3.30
2022-08-12T00:49:51.330Z,4.38
2022-08-12T00:52:54.056Z,4.32
2022-08-12T00:55:58.218Z,3.60
2022-08-12T00:59:04.347Z,3.90
2022-08-12T01:02:10.972Z,3.88
2022-08-12T01:05:35.617Z,4.03
2022-08-12T01:08:56.425Z,3.95
2022-08-12T01:11:58.944Z,3.08
2022-08-12T01:15:03.842Z,3.80
2022-08-12T01:18:06.742Z,3.90
2022-08-12T01:21:16.604Z,3.30
2022-08-12T01:24:44.690Z,4.10
2022-08-12T01:27:50.800Z,3.20
2022-08-12T01:30:54.856Z,4.25
2022-08-12T01:34:04.019Z,3.83
2022-08-12T01:37:09.283Z,4.07
2022-08-12T01:40:35.493Z,3.60
2022-08-12T01:43:41.275Z,3.70
2022-08-12T01:46:54.242Z,4.05
2022-08-12T01:50:13.507Z,4.68
2022-08-12T01:53:20.694Z,4.22
2022-08-12T01:56:32.017Z,3.75
2022-08-12T01:59:50.121Z,3.63
2022-08-12T02:02:58.801Z,3.33
2022-08-12T02:06:28.976Z,3.85
2022-08-12T02:10:49.489Z,3.92
2022-08-12T02:14:07.880Z,3.95
2022-08-12T02:17:28.323Z,4.00
2022-08-12T02:20:53.926Z,4.95
2022-08-12T02:23:57.837Z,4.60
2022-08-12T02:27:01.824Z,4.88
2022-08-12T02:30:06.293Z,4.40
2022-08-12T02:33:10.806Z,4.40
2022-08-12T02:36:13.534Z,3.88
2022-08-12T02:39:17.041Z,4.80
2022-08-12T02:42:23.477Z,4.20
2022-08-12T02:45:36.148Z,4.40
2022-08-12T02:48:46.453Z,4.20
2022-08-12T02:51:48.975Z,4.25
2022-08-12T02:55:01.453Z,3.63
2022-08-12T02:58:12.165Z,4.40
2022-08-12T03:01:23.610Z,3.92
2022-08-12T03:04:40.093Z,3.95
2022-08-12T03:07:56.107Z,3.78
2022-08-12T03:11:11.793Z,4.45
2022-08-12T03:14:18.594Z,4.05
2022-08-12T03:17:29.077Z,4.03
2022-08-12T03:20:38.061Z,3.97
2022-08-12T03:23:42.419Z,4.00
2022-08-12T03:26:46.271Z,3.72
2022-08-12T03:29:51.618Z,3.97
2022-08-12T03:32:57.869Z,3.67
2022-08-12T03:36:04.308Z,3.70
2022-08-12T03:39:36.434Z,3.45
2022-08-12T03:42:51.793Z,3.92
2022-08-12T03:46:17.000Z,4.75
2022-08-12T03:49:37.787Z,3.97
2022-08-12T03:52:59.473Z,3.55
2022-08-12T03:56:19.825Z,3.63
2022-08-12T03:59:39.707Z,3.40
2022-08-12T04:02:42.232Z,3.88
2022-08-12T04:05:55.829Z,4.07
2022-08-12T04:09:00.733Z,3.67
2022-08-12T04:12:22.532Z,4.97
2022-08-12T04:15:32.491Z,4.22
2022-08-12T04:18:35.892Z,4.15
2022-08-12T04:21:42.204Z,3.95
2022-08-12T04:25:04.369Z,4.80
2022-08-12T04:28:13.697Z,4.38
2022-08-12T04:31:16.507Z,4.57
2022-08-12T04:34:19.573Z,4.45
2022-08-12T04:37:23.004Z,3.78
2022-08-12T04:40:30.106Z,3.58
2022-08-12T04:43:59.703Z,4.00
2022-08-12T04:46:55.989Z,3.90
2022-08-12T04:49:58.504Z,4.05
2022-08-12T04:53:01.582Z,3.03
2022-08-12T04:56:06.176Z,4.20
2022-08-12T04:59:08.680Z,3.25
2022-08-12T05:02:11.161Z,3.03
2022-08-12T05:05:23.713Z,3.50
2022-08-12T05:08:26.752Z,3.65
2022-08-12T05:11:30.650Z,3.53
2022-08-12T05:14:37.385Z,3.05
2022-08-12T05:17:40.930Z,3.38
2022-08-12T05:20:44.830Z,3.70
2022-08-12T05:23:47.353Z,3.05
2022-08-12T05:26:51.935Z,3.22
2022-08-12T05:30:06.650Z,3.55
2022-08-12T05:33:11.854Z,3.30
2022-08-12T05:36:16.404Z,3.33
2022-08-12T05:39:18.922Z,3.38
2022-08-12T05:42:34.340Z,3.58
2022-08-12T05:45:41.560Z,3.47
2022-08-12T05:48:47.036Z,3.03
2022-08-12T05:51:49.646Z,3.20
2022-08-12T05:54:57.465Z,3.05
2022-08-12T05:58:02.982Z,3.10
2022-08-12T06:02:10.937Z,3.47
2022-08-12T06:04:28.313Z,3.42
2022-08-12T06:08:00.076Z,4.13
2022-08-12T06:10:57.619Z,3.25
2022-08-12T06:14:01.426Z,2.90
2022-08-12T06:17:14.535Z,3.53
2022-08-12T06:20:27.840Z,3.30
2022-08-12T06:23:32.259Z,2.80
2022-08-12T06:26:34.777Z,3.17
2022-08-12T06:30:07.924Z,2.65
2022-08-12T06:33:21.022Z,3.15
2022-08-12T06:36:30.020Z,2.63
2022-08-12T06:39:36.269Z,2.92
2022-08-12T06:42:52.274Z,2.75
2022-08-12T06:45:58.077Z,2.30
2022-08-12T06:49:00.698Z,2.95
2022-08-12T06:52:04.445Z,2.47
2022-08-12T06:55:07.534Z,3.10
2022-08-12T06:58:11.641Z,2.80
2022-08-12T07:01:17.438Z,2.45
2022-08-12T07:04:38.259Z,2.67
2022-08-12T07:07:41.789Z,2.78
2022-08-12T07:10:47.477Z,2.58
2022-08-12T07:14:12.885Z,2.83
2022-08-12T07:17:17.019Z,2.20
2022-08-12T07:20:50.286Z,2.65
2022-08-12T07:23:43.162Z,2.10
2022-08-12T07:26:45.693Z,2.30
2022-08-12T07:29:58.219Z,2.30
2022-08-12T07:33:09.964Z,2.10
2022-08-12T07:36:14.857Z,2.33
2022-08-12T07:39:17.336Z,2.30
2022-08-12T07:42:19.907Z,2.38
2022-08-12T07:45:22.601Z,1.80
2022-08-12T07:48:27.135Z,2.30
2022-08-12T07:51:30.115Z,1.80
2022-08-12T07:54:32.616Z,1.90
2022-08-12T07:57:35.950Z,1.73
2022-08-12T08:00:40.927Z,1.48
2022-08-12T08:04:00.254Z,1.60
2022-08-12T08:07:02.749Z,1.60
2022-08-12T08:10:10.741Z,1.67
2022-08-12T08:13:13.484Z,1.50
2022-08-12T08:16:16.111Z,1.42
2022-08-12T08:19:23.901Z,1.52
2022-08-12T08:22:41.455Z,1.35
2022-08-12T08:25:45.634Z,1.75
2022-08-12T08:28:48.124Z,1.52
2022-08-12T08:31:54.489Z,1.40
2022-08-12T08:34:59.789Z,2.10
2022-08-12T08:38:11.580Z,1.80
2022-08-12T08:42:16.870Z,1.65
2022-08-12T09:42:51.483Z,1.63
2022-08-12T09:46:11.814Z,1.25
2022-08-12T09:49:16.225Z,1.08
2022-08-12T09:52:19.195Z,1.27
2022-08-12T09:56:03.726Z,1.90
2022-08-12T09:58:59.811Z,1.15
2022-08-12T10:02:44.095Z,1.48
2022-08-12T10:06:27.324Z,1.30
2022-08-12T10:08:52.535Z,1.30
2022-08-12T10:12:13.751Z,1.45
2022-08-12T10:16:01.896Z,1.60
2022-08-12T10:18:51.711Z,1.10
2022-08-12T10:21:56.657Z,1.10
2022-08-12T10:25:17.890Z,1.30
2022-08-12T10:28:38.920Z,1.10
2022-08-12T10:32:19.982Z,1.30
2022-08-12T10:35:08.999Z,1.40
2022-08-12T10:38:38.229Z,1.10
2022-08-12T10:42:00.075Z,1.10
2022-08-12T10:45:05.046Z,1.08
2022-08-12T10:48:21.839Z,1.35
2022-08-12T10:52:04.159Z,1.02
2022-08-12T10:55:00.111Z,1.30
2022-08-12T10:58:14.952Z,1.23
2022-08-12T11:04:18.688Z,1.38
2022-08-12T11:04:52.842Z,1.10
2022-08-12T11:08:34.697Z,1.48
2022-08-12T11:12:07.692Z,1.23
2022-08-12T11:14:50.593Z,1.42
2022-08-12T11:17:55.716Z,1.50
2022-08-12T11:21:00.973Z,1.40
2022-08-12T11:24:08.328Z,1.35
2022-08-12T11:27:30.910Z,1.20
2022-08-12T11:30:33.954Z,1.23
2022-08-12T11:34:06.097Z,1.02
2022-08-12T11:37:04.918Z,1.20
2022-08-12T11:43:19.715Z,1.38
2022-08-12T11:46:22.985Z,1.20
2022-08-12T11:49:31.199Z,1.05
2022-08-12T11:52:56.733Z,1.17
2022-08-12T11:55:58.768Z,1.50
2022-08-12T12:02:23.753Z,1.10
2022-08-12T12:05:39.612Z,1.40
2022-08-12T12:08:52.802Z,1.38
2022-08-12T12:11:56.557Z,1.23
2022-08-12T12:15:03.195Z,1.30
2022-08-12T12:18:22.497Z,1.52
2022-08-12T12:21:47.009Z,1.40
2022-08-12T12:24:52.674Z,1.65
2022-08-12T12:28:06.054Z,1.20
2022-08-12T12:31:14.641Z,1.40
2022-08-12T12:34:31.676Z,1.13
2022-08-12T12:38:04.999Z,1.40
2022-08-12T12:40:58.075Z,1.17
2022-08-12T12:44:04.366Z,1.30
2022-08-12T12:47:26.031Z,1.27
2022-08-12T12:50:35.286Z,1.65
2022-08-12T12:54:08.432Z,1.70
2022-08-12T12:57:03.598Z,1.75
2022-08-12T13:00:17.909Z,1.33
2022-08-12T13:03:21.911Z,1.88
2022-08-12T13:06:25.687Z,1.38
2022-08-12T13:09:35.997Z,1.38
2022-08-12T13:12:42.543Z,1.77
2022-08-12T13:15:47.795Z,1.42
2022-08-12T13:18:53.923Z,1.40
2022-08-12T13:22:18.655Z,1.83
2022-08-12T13:25:22.651Z,1.60
2022-08-12T13:28:29.554Z,1.63
2022-08-12T13:31:35.584Z,1.60
2022-08-12T13:34:38.239Z,1.13
2022-08-12T13:37:43.823Z,1.25
2022-08-12T13:40:58.411Z,1.30
2022-08-12T13:44:04.485Z,1.20
2022-08-12T13:47:19.857Z,1.65
2022-08-12T13:50:26.644Z,1.20
2022-08-12T13:53:55.494Z,1.30
2022-08-12T13:56:53.667Z,1.70
2022-08-12T14:00:01.842Z,1.30
2022-08-12T14:03:05.874Z,1.38
2022-08-12T14:06:08.533Z,1.40
2022-08-12T14:09:20.024Z,1.23
2022-08-12T14:12:24.298Z,1.10
2022-08-12T14:15:36.764Z,1.67
2022-08-12T14:18:42.091Z,1.17
2022-08-12T14:21:59.404Z,1.20
2022-08-12T14:25:04.810Z,1.10
2022-08-12T14:28:11.374Z,1.20
2022-08-12T14:31:18.790Z,1.15
2022-08-12T14:34:28.450Z,1.15
2022-08-12T14:37:58.063Z,1.20
2022-08-12T14:40:56.515Z,1.15
2022-08-12T14:44:06.302Z,1.42
2022-08-12T14:47:22.901Z,1.10
2022-08-12T14:50:37.679Z,1.58
2022-08-12T14:55:28.342Z,1.25
2022-08-12T14:58:00.491Z,1.55
2022-08-12T15:00:53.575Z,1.23
2022-08-12T15:04:02.262Z,1.25
2022-08-12T15:07:04.838Z,1.80
2022-08-12T15:10:10.309Z,1.35
2022-08-12T15:13:13.799Z,1.38
2022-08-12T15:16:18.957Z,1.17
2022-08-12T15:20:28.234Z,1.55
2022-08-12T15:22:54.151Z,1.33
2022-08-12T15:26:02.694Z,1.10
2022-08-12T15:29:06.494Z,1.40
2022-08-12T15:32:15.882Z,1.15
2022-08-12T15:35:20.489Z,1.20
2022-08-12T15:38:28.161Z,1.27
2022-08-12T15:41:30.882Z,1.50
2022-08-12T15:44:53.114Z,1.10
2022-08-12T15:48:04.645Z,1.20
2022-08-12T15:51:58.919Z,0.90
2022-08-12T15:54:58.671Z,1.35
2022-08-12T15:58:02.801Z,1.02
2022-08-12T16:01:11.442Z,1.35
2022-08-12T16:04:14.008Z,1.35
2022-08-12T16:07:26.268Z,1.27
2022-08-12T16:10:34.154Z,1.25
2022-08-12T16:13:37.064Z,1.42
2022-08-12T16:16:39.510Z,1.77
2022-08-12T16:20:05.125Z,1.25
2022-08-12T16:23:35.730Z,1.50
2022-08-12T16:26:35.020Z,1.58
2022-08-12T16:29:53.146Z,1.38
2022-08-12T16:32:58.286Z,1.48
2022-08-12T16:36:01.931Z,1.52
2022-08-12T16:39:05.765Z,1.10
2022-08-12T16:42:08.273Z,1.38
2022-08-12T16:45:14.002Z,1.83
2022-08-12T16:48:34.714Z,1.38
2022-08-12T16:51:41.736Z,1.20
2022-08-12T16:54:49.408Z,1.30
2022-08-12T16:57:54.051Z,1.30
2022-08-12T17:01:02.064Z,1.70
2022-08-12T17:04:08.184Z,1.20
2022-08-12T17:07:16.677Z,1.27
2022-08-12T17:10:36.614Z,1.50
2022-08-12T17:13:53.036Z,1.55
2022-08-12T17:16:57.008Z,1.55
2022-08-12T17:20:35.488Z,1.70
2022-08-12T17:23:47.871Z,1.20
2022-08-12T17:26:53.697Z,1.40
2022-08-12T17:30:04.177Z,1.40
2022-08-12T17:33:08.652Z,1.70
2022-08-12T17:36:11.130Z,1.50
2022-08-12T17:39:13.666Z,1.35
2022-08-12T17:42:34.557Z,1.20
2022-08-12T17:45:40.528Z,1.40
2022-08-12T17:48:54.564Z,1.45
2022-08-12T17:52:03.225Z,1.50
2022-08-12T17:55:20.081Z,1.50
2022-08-12T17:58:37.352Z,1.15
2022-08-12T18:01:45.338Z,1.17
2022-08-12T18:05:09.399Z,1.10
2022-08-12T18:08:11.741Z,1.40
2022-08-12T18:12:04.809Z,1.48
2022-08-12T18:15:09.518Z,1.17
2022-08-12T18:18:17.391Z,1.40
2022-08-12T18:21:22.013Z,1.52
2022-08-12T18:24:29.709Z,1.60
2022-08-12T18:27:44.796Z,1.75
2022-08-12T18:30:53.283Z,1.40
2022-08-12T18:34:00.922Z,1.50
2022-08-12T18:37:16.385Z,1.63
2022-08-12T18:40:46.499Z,1.45
2022-08-12T18:43:58.872Z,1.87
2022-08-12T18:47:09.606Z,1.65
2022-08-12T18:50:16.058Z,1.75
2022-08-12T18:54:05.694Z,1.80
2022-08-12T18:56:45.427Z,1.45
2022-08-12T19:00:02.628Z,1.60
2022-08-12T19:03:38.949Z,1.77
2022-08-12T19:06:39.377Z,1.70
2022-08-12T19:09:58.317Z,2.10
2022-08-12T19:13:23.923Z,1.52
2022-08-12T19:16:27.843Z,2.13
2022-08-12T19:19:37.530Z,2.00
2022-08-12T19:23:02.163Z,1.88
2022-08-12T19:26:10.827Z,1.77
2022-08-12T19:29:18.158Z,2.13
2022-08-12T19:32:24.090Z,1.98
2022-08-12T19:36:07.324Z,1.92
2022-08-12T19:38:57.089Z,1.85
2022-08-12T19:42:01.256Z,1.45
2022-08-12T19:45:05.678Z,1.88
2022-08-12T19:48:17.846Z,1.83
2022-08-12T19:51:33.302Z,2.35
2022-08-12T19:54:36.582Z,2.15
2022-08-12T19:57:42.455Z,2.25
2022-08-12T20:00:48.974Z,2.03
2022-08-12T20:03:57.447Z,2.00
2022-08-12T20:07:03.339Z,2.20
2022-08-12T20:10:11.826Z,2.22
2022-08-12T20:13:26.950Z,1.60
2022-08-12T20:16:52.831Z,1.70
2022-08-12T20:20:17.160Z,2.45
2022-08-12T20:23:50.198Z,1.90
2022-08-12T20:26:51.930Z,2.00
2022-08-12T20:29:54.622Z,2.20
2022-08-12T20:33:00.488Z,2.03
2022-08-12T20:36:13.032Z,1.90
2022-08-12T20:39:53.017Z,2.65
2022-08-12T20:42:53.515Z,2.40
2022-08-12T20:45:57.499Z,2.55
2022-08-12T20:49:17.095Z,1.75
2022-08-12T20:52:22.499Z,2.28
2022-08-12T20:55:42.334Z,2.22
2022-08-12T20:58:45.687Z,2.90
2022-08-12T21:01:49.317Z,2.20
2022-08-12T21:05:19.473Z,2.30
2022-08-12T21:08:26.587Z,1.67
2022-08-12T21:11:33.930Z,1.88
2022-08-12T21:14:39.946Z,2.30
2022-08-12T21:18:11.552Z,1.77
2022-08-12T21:21:40.303Z,1.92
2022-08-12T21:24:46.953Z,2.00
2022-08-12T21:27:59.445Z,2.42
2022-08-12T21:32:34.951Z,1.90
2022-08-12T21:34:29.628Z,1.80
2022-08-12T21:37:37.413Z,1.92
2022-08-12T21:40:51.974Z,1.65
2022-08-12T21:44:01.708Z,1.90
2022-08-12T21:47:20.984Z,2.25
2022-08-12T21:50:25.988Z,1.67
2022-08-12T21:54:07.820Z,2.25
2022-08-12T21:56:54.175Z,2.55
2022-08-12T21:59:57.984Z,2.08
2022-08-12T22:03:42.654Z,1.73
2022-08-12T22:06:43.103Z,2.05
2022-08-12T22:09:46.840Z,2.17
2022-08-12T22:13:00.981Z,2.40
2022-08-12T22:16:05.424Z,2.10
2022-08-12T22:19:07.866Z,2.22
2022-08-12T22:22:12.286Z,1.65
2022-08-12T22:25:16.717Z,1.92
2022-08-12T22:28:40.468Z,2.03
2022-08-12T22:31:44.268Z,2.05
2022-08-12T22:35:08.274Z,2.55
2022-08-12T22:38:14.346Z,2.17
2022-08-12T22:41:37.709Z,2.15
2022-08-12T22:45:03.081Z,2.35
2022-08-12T22:48:07.085Z,2.30
2022-08-12T22:51:10.377Z,2.45
2022-08-12T22:54:20.850Z,2.17
2022-08-12T22:57:53.206Z,1.90
2022-08-12T23:00:57.086Z,1.90
2022-08-12T23:04:03.026Z,2.60
2022-08-12T23:07:07.319Z,1.98
2022-08-12T23:10:10.545Z,2.92
2022-08-12T23:13:42.238Z,2.15
2022-08-12T23:16:49.489Z,2.20
2022-08-12T23:19:56.122Z,2.45
2022-08-12T23:23:03.196Z,2.38
2022-08-12T23:26:09.094Z,3.03
2022-08-12T23:29:30.051Z,2.55
2022-08-12T23:32:39.235Z,2.40
2022-08-12T23:35:45.827Z,2.40
2022-08-12T23:38:58.728Z,2.45
2022-08-12T23:42:17.455Z,2.30
2022-08-12T23:45:31.325Z,2.38
2022-08-12T23:48:34.710Z,2.00
2022-08-12T23:51:38.657Z,2.30
2022-08-12T23:54:45.783Z,2.65
2022-08-12T23:58:20.725Z,2.60
